createdAt,value
2017-12-30T08:20:41.545Z,94697
2017-12-30T08:23:09.643Z,94711
2017-12-30T08:25:37.739Z,94708
2017-12-30T08:28:05.878Z,94723
2017-12-30T08:30:35.505Z,94728
2017-12-30T08:33:03.586Z,94720
2017-12-30T08:35:31.788Z,94721
2017-12-30T08:38:00.725Z,94733
2017-12-30T08:40:28.822Z,94727
2017-12-30T08:42:56.920Z,94713
2017-12-30T08:45:25.017Z,94712
2017-12-30T08:47:53.118Z,94711
2017-12-30T08:50:21.272Z,94708
2017-12-30T08:52:49.387Z,94712
2017-12-30T08:55:17.466Z,94712
2017-12-30T08:57:45.576Z,94717
2017-12-30T09:00:13.674Z,94705
2017-12-30T09:02:41.776Z,94710
2017-12-30T09:05:10.028Z,94710
2017-12-30T09:07:38.108Z,94716
2017-12-30T09:10:06.200Z,94698
2017-12-30T09:12:34.321Z,94691
2017-12-30T09:15:03.179Z,94692
2017-12-30T09:17:31.348Z,94689
2017-12-30T09:19:59.482Z,94696
2017-12-30T09:22:27.540Z,94708
2017-12-30T09:24:55.657Z,94685
2017-12-30T09:27:23.759Z,94677
2017-12-30T11:39:45.320Z,94416
2017-12-30T11:42:14.824Z,94416
2017-12-30T11:44:42.908Z,94413
2017-12-30T11:47:11.021Z,94414
2017-12-30T11:49:39.130Z,94427
2017-12-30T11:52:07.228Z,94409
2017-12-30T11:54:35.318Z,94413
2017-12-30T11:57:03.405Z,94414
2017-12-30T11:59:31.579Z,94410
2017-12-30T12:01:59.686Z,94392
2017-12-30T12:04:27.799Z,94405
2017-12-30T12:06:55.907Z,94395
2017-12-30T12:09:24.000Z,94403
2017-12-30T12:11:53.061Z,94401
2017-12-30T12:14:21.145Z,94406
2017-12-30T12:16:49.320Z,94399
2017-12-30T12:28:06.688Z,94374
2017-12-30T12:30:34.794Z,94373
2017-12-30T12:33:03.507Z,94367
2017-12-30T12:35:31.748Z,94366
2017-12-30T12:38:00.203Z,94373
2017-12-30T12:40:39.524Z,94358
2017-12-30T12:43:08.020Z,94367
2017-12-30T12:45:36.111Z,94358
2017-12-30T12:48:04.237Z,94373
2017-12-30T12:50:32.425Z,94384
2017-12-30T12:53:00.601Z,94379
2017-12-30T12:55:29.309Z,94406
2017-12-30T12:57:57.490Z,94377
2017-12-30T13:00:25.661Z,94371
2017-12-30T13:02:53.814Z,94373
2017-12-30T13:05:22.158Z,94375
2017-12-30T13:07:50.263Z,94378
2017-12-30T13:10:55.389Z,94375
2017-12-30T13:13:28.509Z,94377
2017-12-30T13:15:57.601Z,94391
2017-12-30T13:18:26.651Z,94390
2017-12-30T13:21:04.044Z,94383
2017-12-30T13:36:32.333Z,94382
2017-12-30T13:44:56.982Z,94395
2017-12-30T14:11:47.977Z,94400
2017-12-30T14:36:54.069Z,94409
2017-12-30T14:39:22.185Z,94417
2017-12-30T14:41:50.307Z,94428
2017-12-30T14:44:18.550Z,94435
2017-12-30T14:46:46.682Z,94434
2017-12-30T14:49:14.788Z,94407
2017-12-30T14:51:43.033Z,94432
2017-12-30T14:54:11.151Z,94435
2017-12-30T14:56:39.889Z,94439
2017-12-30T14:59:08.032Z,94456
2017-12-30T15:01:36.153Z,94445
2017-12-30T15:04:04.259Z,94446
2017-12-30T15:06:32.411Z,94458
2017-12-30T15:09:00.533Z,94454
2017-12-30T15:11:28.634Z,94455
2017-12-30T15:13:56.736Z,94458
2017-12-30T15:16:24.887Z,94477
2017-12-30T15:18:53.759Z,94465
2017-12-30T15:21:21.876Z,94487
2017-12-30T15:23:49.985Z,94502
2017-12-30T15:26:18.089Z,94513
2017-12-30T15:28:46.196Z,94508
2017-12-30T15:31:14.356Z,94517
2017-12-30T15:33:43.054Z,94513
2017-12-30T15:36:11.158Z,94527
2017-12-30T15:38:39.240Z,94522
2017-12-30T15:41:07.359Z,94526
2017-12-30T15:43:35.485Z,94531
2017-12-30T15:46:03.802Z,94541
2017-12-30T15:48:32.673Z,94540
2017-12-30T15:51:00.854Z,94549
2017-12-30T15:53:28.949Z,94553
2017-12-30T15:55:57.049Z,94562
2017-12-30T15:58:25.156Z,94552
2017-12-30T16:00:53.282Z,94551
2017-12-30T16:03:21.515Z,94557
2017-12-30T16:05:49.737Z,94549
2017-12-30T16:08:17.849Z,94572
2017-12-30T16:10:45.939Z,94576
2017-12-30T16:13:14.040Z,94585
2017-12-30T16:15:42.146Z,94577
2017-12-30T16:18:10.273Z,94583
2017-12-30T16:20:38.375Z,94571
2017-12-30T16:23:06.505Z,94571
2017-12-30T16:25:34.698Z,94561
2017-12-30T16:28:02.935Z,94557
2017-12-30T16:30:31.136Z,94562
2017-12-30T16:32:59.326Z,94573
2017-12-30T16:35:27.417Z,94579
2017-12-30T16:37:55.538Z,94588
2017-12-30T16:40:24.403Z,94588
2017-12-30T16:42:52.518Z,94597
2017-12-30T16:45:20.680Z,94611
2017-12-30T16:47:48.832Z,94603
2017-12-30T16:50:16.922Z,94605
2017-12-30T16:52:45.788Z,94605
2017-12-30T16:55:13.886Z,94613
2017-12-30T16:57:42.805Z,94622
2017-12-30T17:00:10.914Z,94642
2017-12-30T17:02:39.000Z,94634
2017-12-30T17:05:07.117Z,94637
2017-12-30T17:07:35.217Z,94632
2017-12-30T17:10:03.327Z,94624
2017-12-30T17:12:31.423Z,94630
2017-12-30T17:14:59.519Z,94650
2017-12-30T17:17:27.645Z,94651
2017-12-30T17:19:55.735Z,94649
2017-12-30T17:22:23.835Z,94642
2017-12-30T17:24:51.925Z,94640
2017-12-30T17:27:20.037Z,94636
2017-12-30T17:29:48.129Z,94632
2017-12-30T17:32:16.433Z,94641
2017-12-30T17:34:44.547Z,94648
2017-12-30T17:37:12.650Z,94654
2017-12-30T17:39:40.943Z,94659
2017-12-30T17:42:09.059Z,94660
2017-12-30T17:44:37.870Z,94669
2017-12-30T17:47:05.961Z,94661
2017-12-30T17:49:34.136Z,94655
2017-12-30T17:52:02.313Z,94666
2017-12-30T17:54:30.457Z,94668
2017-12-30T17:56:58.685Z,94658
2017-12-30T17:59:26.801Z,94667
2017-12-30T18:01:54.891Z,94666
2017-12-30T18:04:23.044Z,94671
2017-12-30T18:06:51.143Z,94667
2017-12-30T18:09:19.315Z,94691
2017-12-30T18:11:47.429Z,94685
2017-12-30T18:14:15.584Z,94678
2017-12-30T18:16:43.803Z,94685
2017-12-30T18:19:11.921Z,94682
2017-12-30T18:21:40.048Z,94682
2017-12-30T18:24:08.140Z,94671
2017-12-30T18:26:37.017Z,94669
2017-12-30T18:29:05.119Z,94670
2017-12-30T18:31:34.014Z,94676
2017-12-30T18:34:02.114Z,94683
2017-12-30T18:36:30.220Z,94680
2017-12-30T18:38:58.352Z,94674
2017-12-30T18:41:30.656Z,94697
2017-12-30T18:43:58.766Z,94689
2017-12-30T18:46:26.887Z,94697
2017-12-30T18:48:55.037Z,94702
2017-12-30T18:51:23.242Z,94703
2017-12-30T18:53:51.349Z,94695
2017-12-30T18:56:19.445Z,94710
2017-12-30T18:58:47.587Z,94720
2017-12-30T19:01:15.684Z,94714
2017-12-30T19:03:43.780Z,94726
2017-12-30T19:06:11.911Z,94722
2017-12-30T19:08:40.050Z,94711
2017-12-30T19:11:08.336Z,94726
2017-12-30T19:13:36.522Z,94727
2017-12-30T19:16:04.747Z,94712
2017-12-30T19:18:33.101Z,94718
2017-12-30T19:21:01.255Z,94719
2017-12-30T19:23:29.378Z,94728
2017-12-30T19:25:57.522Z,94724
2017-12-30T19:28:25.649Z,94723
2017-12-30T19:30:54.408Z,94712
2017-12-30T19:33:22.541Z,94727
2017-12-30T19:35:50.702Z,94721
2017-12-30T19:38:18.829Z,94719
2017-12-30T19:40:46.928Z,94720
2017-12-30T19:43:15.047Z,94729
2017-12-30T19:45:43.178Z,94729
2017-12-30T19:48:11.321Z,94719
2017-12-30T19:50:39.428Z,94722
2017-12-30T19:53:07.553Z,94733
2017-12-30T19:55:35.761Z,94728
2017-12-30T19:58:04.716Z,94728
2017-12-30T20:00:32.822Z,94727
2017-12-30T20:03:00.956Z,94750
2017-12-30T20:05:29.148Z,94738
2017-12-30T20:07:57.267Z,94736
2017-12-30T20:10:25.415Z,94722
2017-12-30T20:12:53.526Z,94716
2017-12-30T20:15:22.419Z,94719
2017-12-30T20:17:50.579Z,94724
2017-12-30T20:20:18.846Z,94727
2017-12-30T20:22:47.111Z,94731
2017-12-30T20:25:16.112Z,94741
2017-12-30T20:27:44.247Z,94751
2017-12-30T20:30:12.395Z,94762
2017-12-30T20:32:40.579Z,94745
2017-12-30T20:35:08.712Z,94745
2017-12-30T20:37:36.930Z,94734
2017-12-30T20:40:05.227Z,94740
2017-12-30T20:42:33.388Z,94745
2017-12-30T20:45:01.642Z,94748
2017-12-30T20:47:29.846Z,94745
2017-12-30T20:49:58.074Z,94730
2017-12-30T20:52:27.034Z,94737
2017-12-30T20:54:55.196Z,94738
2017-12-30T20:57:23.325Z,94740
2017-12-30T20:59:51.542Z,94736
2017-12-30T21:02:19.648Z,94727
2017-12-30T21:04:47.777Z,94736
2017-12-30T21:07:15.943Z,94733
2017-12-30T21:09:45.677Z,94724
2017-12-30T21:12:13.862Z,94732
2017-12-30T21:14:42.024Z,94730
2017-12-30T21:17:10.151Z,94728
2017-12-30T21:19:38.303Z,94745
2017-12-30T21:22:06.454Z,94743
2017-12-30T21:24:34.588Z,94751
2017-12-30T21:27:02.820Z,94750
2017-12-30T21:29:30.964Z,94745
2017-12-30T21:31:59.260Z,94767
2017-12-30T21:34:27.550Z,94759
2017-12-30T21:36:55.765Z,94761
2017-12-30T21:39:24.068Z,94769
2017-12-30T21:41:52.254Z,94756
2017-12-30T21:44:20.521Z,94761
2017-12-30T21:46:48.730Z,94761
2017-12-30T21:49:16.984Z,94766
2017-12-30T21:51:45.153Z,94770
2017-12-30T21:54:13.319Z,94776
2017-12-30T21:56:42.125Z,94765
2017-12-30T21:59:10.288Z,94772
2017-12-30T22:01:38.431Z,94785
2017-12-30T22:04:06.554Z,94775
2017-12-30T22:06:34.655Z,94790
2017-12-30T22:09:02.769Z,94794
2017-12-30T22:11:30.870Z,94791
2017-12-30T22:13:59.003Z,94794
2017-12-30T22:16:27.108Z,94798
2017-12-30T22:18:55.207Z,94803
2017-12-30T22:21:23.319Z,94787
2017-12-30T22:23:51.498Z,94799
2017-12-30T22:26:19.648Z,94799
2017-12-30T22:28:47.745Z,94815
2017-12-30T22:31:15.856Z,94809
2017-12-30T22:33:44.700Z,94810
2017-12-30T22:36:12.806Z,94824
2017-12-30T22:38:40.999Z,94822
2017-12-30T22:41:09.184Z,94818
2017-12-30T22:43:37.420Z,94818
2017-12-30T22:46:05.710Z,94826
2017-12-30T22:48:33.845Z,94836
2017-12-30T22:51:02.040Z,94820
2017-12-30T22:53:30.212Z,94825
2017-12-30T22:55:58.296Z,94825
2017-12-30T22:58:26.441Z,94841
2017-12-30T23:01:00.150Z,94812
2017-12-30T23:03:28.371Z,94819
2017-12-30T23:05:56.556Z,94826
2017-12-30T23:08:24.828Z,94829
2017-12-30T23:10:52.948Z,94837
2017-12-30T23:13:21.070Z,94830
2017-12-30T23:15:49.161Z,94835
2017-12-30T23:18:17.254Z,94829
2017-12-30T23:20:45.360Z,94834
2017-12-30T23:23:13.532Z,94834
2017-12-30T23:25:41.815Z,94848
2017-12-30T23:28:09.923Z,94847
2017-12-30T23:30:38.027Z,94838
2017-12-30T23:33:06.122Z,94840
2017-12-30T23:35:34.609Z,94847
2017-12-30T23:38:02.802Z,94868
2017-12-30T23:40:31.050Z,94856
2017-12-30T23:42:59.249Z,94856
2017-12-30T23:45:27.362Z,94852
2017-12-30T23:47:55.478Z,94845
2017-12-30T23:50:23.664Z,94845
2017-12-30T23:52:52.529Z,94857
2017-12-30T23:55:20.619Z,94862
2017-12-30T23:57:48.754Z,94860
